createdAt,value
2023-02-27T00:00:34.095Z,97118.73
2023-02-27T00:03:22.233Z,97122.99
2023-02-27T00:05:50.102Z,97118.17
2023-02-27T00:08:18.062Z,97122.27
2023-02-27T00:10:46.034Z,97130.63
2023-02-27T00:13:14.017Z,97135.28
2023-02-27T00:15:42.077Z,97131.36
2023-02-27T00:18:09.877Z,97126.21
2023-02-27T00:20:38.415Z,97116.52
2023-02-27T00:23:07.019Z,97115.48
2023-02-27T00:25:35.597Z,97118.92
2023-02-27T00:28:04.692Z,97133.48
2023-02-27T00:30:33.211Z,97130.73
2023-02-27T00:33:01.339Z,97123.70
2023-02-27T00:35:29.523Z,97123.68
2023-02-27T00:37:57.488Z,97127.41
2023-02-27T00:40:28.321Z,97127.34
2023-02-27T00:42:56.603Z,97129.67
2023-02-27T00:45:24.776Z,97131.38
2023-02-27T00:47:53.263Z,97131.81
2023-02-27T00:50:21.324Z,97133.08
2023-02-27T00:52:49.296Z,97137.52
2023-02-27T00:55:17.263Z,97142.39
2023-02-27T00:57:45.265Z,97138.69
2023-02-27T01:00:13.619Z,97135.19
2023-02-27T01:02:41.954Z,97129.58
2023-02-27T01:05:10.371Z,97125.95
2023-02-27T01:07:38.853Z,97122.56
2023-02-27T01:10:08.725Z,97119.79
2023-02-27T01:12:39.209Z,97113.97
2023-02-27T01:15:08.194Z,97114.63
2023-02-27T01:17:36.674Z,97125.40
2023-02-27T01:20:06.649Z,97127.95
2023-02-27T01:22:34.764Z,97128.55
2023-02-27T01:25:03.050Z,97133.33
2023-02-27T01:27:30.934Z,97139.92
2023-02-27T01:29:59.595Z,97140.15
2023-02-27T01:32:27.941Z,97134.23
2023-02-27T01:34:55.939Z,97129.92
2023-02-27T01:37:23.918Z,97124.11
2023-02-27T01:39:51.777Z,97122.40
2023-02-27T01:42:22.288Z,97121.09
2023-02-27T01:45:09.012Z,97122.98
2023-02-27T01:47:38.003Z,97121.77
2023-02-27T01:50:06.795Z,97128.75
2023-02-27T01:52:37.235Z,97135.88
2023-02-27T01:55:08.476Z,97135.67
2023-02-27T01:57:36.958Z,97131.27
2023-02-27T02:00:06.262Z,97128.85
2023-02-27T02:02:47.949Z,97130.27
2023-02-27T02:05:16.015Z,97136.21
2023-02-27T02:07:45.076Z,97137.95
2023-02-27T02:10:15.334Z,97130.50
2023-02-27T02:12:43.918Z,97128.69
2023-02-27T02:15:11.780Z,97130.33
2023-02-27T02:17:40.462Z,97124.14
2023-02-27T02:20:14.409Z,97120.70
2023-02-27T02:23:01.007Z,97123.20
2023-02-27T02:25:28.951Z,97128.34
2023-02-27T02:28:03.164Z,97127.63
2023-02-27T02:30:43.401Z,97127.86
2023-02-27T02:33:32.389Z,97126.87
2023-02-27T02:36:18.889Z,97126.44
2023-02-27T02:38:56.286Z,97127.69
2023-02-27T02:41:42.781Z,97128.66
2023-02-27T02:44:29.182Z,97139.04
2023-02-27T02:47:17.301Z,97147.17
2023-02-27T02:49:49.193Z,97149.06
2023-02-27T02:52:30.059Z,97146.90
2023-02-27T02:55:10.931Z,97147.84
2023-02-27T02:57:38.905Z,97147.77
2023-02-27T03:00:11.887Z,97147.31
2023-02-27T03:02:43.763Z,97145.52
2023-02-27T03:05:21.514Z,97143.86
2023-02-27T03:07:52.720Z,97146.05
2023-02-27T03:10:38.174Z,97154.46
2023-02-27T03:13:12.002Z,97166.61
2023-02-27T03:15:52.801Z,97172.06
2023-02-27T03:18:24.742Z,97179.86
2023-02-27T03:20:56.084Z,97191.48
2023-02-27T03:23:28.269Z,97201.81
2023-02-27T03:25:58.332Z,97206.19
2023-02-27T03:28:30.147Z,97208.41
2023-02-27T03:31:07.697Z,97201.48
2023-02-27T03:33:49.319Z,97199.70
2023-02-27T03:36:27.649Z,97202.11
2023-02-27T03:39:01.096Z,97202.86
2023-02-27T03:41:32.440Z,97202.66
2023-02-27T03:44:19.870Z,97210.45
2023-02-27T03:46:48.041Z,97223.88
2023-02-27T03:49:16.012Z,97233.20
2023-02-27T03:51:44.594Z,97238.66
2023-02-27T03:54:15.130Z,97244.31
2023-02-27T03:57:09.459Z,97242.73
2023-02-27T03:59:38.209Z,97244.37
2023-02-27T04:02:06.651Z,97241.10
2023-02-27T04:04:37.734Z,97243.02
2023-02-27T04:07:34.874Z,97244.91
2023-02-27T04:10:15.241Z,97243.98
2023-02-27T04:12:46.084Z,97240.18
2023-02-27T04:15:34.350Z,97241.42
2023-02-27T04:18:08.649Z,97240.80
2023-02-27T04:20:36.611Z,97240.91
2023-02-27T04:23:12.564Z,97242.85
2023-02-27T04:25:40.434Z,97243.25
2023-02-27T04:28:22.540Z,97245.48
2023-02-27T04:31:02.916Z,97246.65
2023-02-27T04:33:42.955Z,97254.08
2023-02-27T04:36:19.128Z,97252.96
2023-02-27T04:38:50.052Z,97251.30
2023-02-27T04:41:23.564Z,97257.52
2023-02-27T04:43:52.542Z,97258.30
2023-02-27T04:46:23.906Z,97259.05
2023-02-27T04:49:04.524Z,97256.62
2023-02-27T04:51:35.616Z,97260.71
2023-02-27T04:54:11.254Z,97264.42
2023-02-27T04:56:42.494Z,97268.70
2023-02-27T04:59:20.608Z,97272.02
2023-02-27T05:01:54.284Z,97278.33
2023-02-27T05:04:24.794Z,97278.36
2023-02-27T05:06:55.172Z,97284.16
2023-02-27T05:09:41.565Z,97291.14
2023-02-27T05:12:19.976Z,97296.06
2023-02-27T05:14:47.755Z,97302.25
2023-02-27T05:17:20.329Z,97306.80
2023-02-27T05:19:48.801Z,97311.75
2023-02-27T05:22:23.945Z,97309.81
2023-02-27T05:25:02.553Z,97305.16
2023-02-27T05:27:31.452Z,97303.07
2023-02-27T05:30:02.079Z,97300.14
2023-02-27T05:32:35.950Z,97308.95
2023-02-27T05:35:07.304Z,97317.84
2023-02-27T05:37:43.599Z,97323.38
2023-02-27T05:40:14.024Z,97328.23
2023-02-27T05:42:45.266Z,97336.20
2023-02-27T05:45:15.293Z,97344.85
2023-02-27T05:47:46.080Z,97355.30
2023-02-27T05:50:17.887Z,97360.60
2023-02-27T05:52:47.595Z,97364.40
2023-02-27T05:55:24.364Z,97363.09
2023-02-27T05:58:01.908Z,97366.34
2023-02-27T06:00:29.957Z,97377.35
2023-02-27T06:02:58.112Z,97385.33
2023-02-27T06:05:27.513Z,97388.88
2023-02-27T06:07:55.478Z,97398.95
2023-02-27T06:10:23.496Z,97404.73
2023-02-27T06:12:51.628Z,97411.83
2023-02-27T06:15:19.901Z,97415.80
2023-02-27T06:17:47.868Z,97417.73
2023-02-27T06:20:15.843Z,97421.83
2023-02-27T06:22:44.023Z,97427.39
2023-02-27T06:25:12.089Z,97427.84
2023-02-27T06:27:40.061Z,97434.96
2023-02-27T06:30:08.530Z,97439.91
2023-02-27T06:32:36.609Z,97441.23
2023-02-27T06:35:06.478Z,97447.27
2023-02-27T06:37:34.362Z,97453.52
2023-02-27T06:40:02.259Z,97455.83
2023-02-27T06:42:30.220Z,97456.19
2023-02-27T06:44:58.192Z,97461.14
2023-02-27T06:47:26.044Z,97466.91
2023-02-27T06:49:54.030Z,97471.66
2023-02-27T06:52:21.999Z,97477.75
2023-02-27T06:54:50.067Z,97481.32
2023-02-27T06:57:18.071Z,97483.71
2023-02-27T06:59:46.001Z,97492.70
2023-02-27T07:02:15.099Z,97500.58
2023-02-27T07:04:43.488Z,97503.31
2023-02-27T07:07:35.931Z,97504.29
2023-02-27T07:09:59.488Z,97507.44
2023-02-27T07:12:27.354Z,97509.13
2023-02-27T07:14:55.331Z,97507.64
2023-02-27T07:17:23.298Z,97515.70
2023-02-27T07:19:51.376Z,97521.59
2023-02-27T07:22:19.349Z,97523.59
2023-02-27T07:24:47.303Z,97524.67
2023-02-27T07:27:16.208Z,97533.34
2023-02-27T07:29:44.284Z,97536.88
2023-02-27T07:32:12.455Z,97545.85
2023-02-27T07:34:40.410Z,97550.60
2023-02-27T07:37:08.380Z,97552.98
2023-02-27T07:39:36.278Z,97555.77
2023-02-27T07:42:04.629Z,97559.02
2023-02-27T07:44:34.757Z,97565.13
2023-02-27T07:47:02.841Z,97567.68
2023-02-27T07:49:30.899Z,97568.37
2023-02-27T07:51:58.785Z,97567.09
2023-02-27T07:54:27.696Z,97566.25
2023-02-27T07:56:55.826Z,97571.20
2023-02-27T07:59:23.733Z,97572.27
2023-02-27T08:01:51.658Z,97575.86
2023-02-27T08:04:19.657Z,97579.48
2023-02-27T08:06:47.811Z,97587.34
2023-02-27T08:09:15.985Z,97589.75
2023-02-27T08:11:43.949Z,97595.14
2023-02-27T08:14:11.924Z,97596.04
2023-02-27T08:16:40.227Z,97600.78
2023-02-27T08:19:08.383Z,97606.99
2023-02-27T08:21:36.249Z,97611.70
2023-02-27T08:24:04.317Z,97621.23
2023-02-27T08:26:32.493Z,97628.58
2023-02-27T08:29:00.353Z,97634.25
2023-02-27T08:31:28.170Z,97639.42
2023-02-27T08:34:04.497Z,97646.00
2023-02-27T08:36:37.135Z,97653.34
2023-02-27T08:39:05.998Z,97658.51
2023-02-27T08:41:34.321Z,97663.39
2023-02-27T08:44:02.513Z,97672.16
2023-02-27T08:46:30.657Z,97679.55
2023-02-27T08:48:58.753Z,97682.11
2023-02-27T08:51:27.115Z,97679.69
2023-02-27T08:53:58.918Z,97684.84
2023-02-27T08:56:27.484Z,97691.67
2023-02-27T08:58:56.254Z,97695.48
2023-02-27T09:01:27.560Z,97699.05
2023-02-27T09:03:55.661Z,97698.14
2023-02-27T09:06:25.910Z,97701.65
2023-02-27T09:08:54.371Z,97707.88
2023-02-27T09:11:22.761Z,97712.46
2023-02-27T09:13:51.750Z,97723.19
2023-02-27T09:16:20.572Z,97729.16
2023-02-27T09:18:48.842Z,97733.55
2023-02-27T09:21:17.433Z,97735.84
2023-02-27T09:23:45.312Z,97745.04
2023-02-27T09:26:13.457Z,97749.14
2023-02-27T09:28:41.609Z,97747.30
2023-02-27T09:31:10.199Z,97746.66
2023-02-27T09:33:38.678Z,97747.42
2023-02-27T09:36:07.486Z,97752.33
2023-02-27T09:38:36.147Z,97755.20
2023-02-27T09:41:05.403Z,97763.18
2023-02-27T09:43:33.325Z,97763.35
2023-02-27T09:46:02.181Z,97773.44
2023-02-27T09:48:33.152Z,97781.73
2023-02-27T09:51:01.532Z,97787.91
2023-02-27T09:53:31.480Z,97797.40
2023-02-27T09:56:07.326Z,97796.74
2023-02-27T09:58:43.555Z,97790.66
2023-02-27T10:01:14.709Z,97793.36
2023-02-27T10:03:45.854Z,97794.14
2023-02-27T10:06:17.094Z,97791.98
2023-02-27T10:08:49.258Z,97790.59
2023-02-27T10:11:20.072Z,97796.05
2023-02-27T10:13:50.807Z,97798.95
2023-02-27T10:16:20.555Z,97795.21
2023-02-27T10:18:51.376Z,97793.42
2023-02-27T10:21:22.835Z,97795.86
2023-02-27T10:24:09.666Z,97802.75
2023-02-27T10:26:39.758Z,97814.04
2023-02-27T10:29:19.303Z,97820.73
2023-02-27T10:31:49.978Z,97820.88
2023-02-27T10:34:18.114Z,97819.98
2023-02-27T10:36:47.508Z,97824.55
2023-02-27T10:39:18.151Z,97826.30
2023-02-27T10:41:47.045Z,97823.73
2023-02-27T10:44:16.128Z,97823.67
2023-02-27T10:46:44.468Z,97825.33
2023-02-27T10:49:19.552Z,97829.94
2023-02-27T10:52:03.792Z,97833.16
2023-02-27T10:54:31.991Z,97842.67
2023-02-27T10:57:01.885Z,97842.24
2023-02-27T10:59:33.025Z,97848.86
2023-02-27T11:02:02.218Z,97854.52
2023-02-27T11:04:40.842Z,97853.79
2023-02-27T11:07:12.297Z,97852.77
2023-02-27T11:09:40.490Z,97853.59
2023-02-27T11:12:28.518Z,97857.94
2023-02-27T11:14:57.703Z,97865.16
2023-02-27T11:17:28.803Z,97870.66
2023-02-27T11:19:58.043Z,97869.23
2023-02-27T11:22:28.268Z,97870.91
2023-02-27T11:25:15.071Z,97874.06
2023-02-27T11:27:43.160Z,97882.42
2023-02-27T11:30:22.608Z,97884.72
2023-02-27T11:32:54.146Z,97886.70
2023-02-27T11:35:24.467Z,97890.13
2023-02-27T11:37:54.289Z,97895.84
2023-02-27T11:40:23.284Z,97898.40
2023-02-27T11:42:53.097Z,97905.84
2023-02-27T11:46:05.291Z,97907.89
2023-02-27T11:48:09.611Z,97914.17
2023-02-27T11:50:42.801Z,97917.92
2023-02-27T11:53:23.268Z,97920.86
2023-02-27T11:55:53.933Z,97921.15
2023-02-27T11:58:25.449Z,97926.90
2023-02-27T12:01:00.217Z,97930.54
2023-02-27T12:03:48.746Z,97931.34
2023-02-27T12:06:22.230Z,97934.66
2023-02-27T12:08:50.298Z,97938.81
2023-02-27T12:11:28.421Z,97941.61
2023-02-27T12:14:19.726Z,97940.51
2023-02-27T12:16:54.215Z,97944.45
2023-02-27T12:19:30.205Z,97956.20
2023-02-27T12:22:16.603Z,97964.23
2023-02-27T12:24:47.141Z,97972.73
2023-02-27T12:27:22.644Z,97978.04
2023-02-27T12:30:00.791Z,97972.80
2023-02-27T12:32:49.877Z,97975.52
2023-02-27T12:35:18.327Z,97977.34
2023-02-27T12:37:46.639Z,97978.10
2023-02-27T12:40:16.095Z,97978.30
2023-02-27T12:42:44.083Z,97982.73
2023-02-27T12:45:23.217Z,97984.86
2023-02-27T12:47:51.116Z,97993.60
2023-02-27T12:50:20.885Z,97993.94
2023-02-27T12:52:57.981Z,97996.50
2023-02-27T12:55:27.785Z,98005.30
2023-02-27T12:58:07.943Z,98011.77
2023-02-27T13:00:51.773Z,98012.10
2023-02-27T13:03:28.862Z,98015.33
2023-02-27T13:06:03.268Z,98019.61
2023-02-27T13:08:31.200Z,98026.59
2023-02-27T13:11:03.430Z,98026.11
2023-02-27T13:13:37.123Z,98026.70
2023-02-27T13:16:07.388Z,98030.94
2023-02-27T13:18:48.430Z,98029.70
2023-02-27T13:21:26.279Z,98029.80
2023-02-27T13:24:01.162Z,98036.90
2023-02-27T13:26:31.852Z,98040.70
2023-02-27T13:29:01.088Z,98040.17
2023-02-27T13:31:47.865Z,98043.98
2023-02-27T13:34:22.120Z,98048.23
2023-02-27T13:36:57.975Z,98050.02
2023-02-27T13:39:41.202Z,98052.05
2023-02-27T13:42:35.689Z,98055.77
2023-02-27T13:45:06.527Z,98061.05
2023-02-27T13:47:39.104Z,98062.66
2023-02-27T13:50:21.337Z,98065.88
2023-02-27T13:52:49.783Z,98070.11
2023-02-27T13:55:31.997Z,98068.54
2023-02-27T13:58:00.991Z,98068.14
2023-02-27T14:00:30.696Z,98073.31
2023-02-27T14:03:01.869Z,98074.48
2023-02-27T14:05:36.064Z,98071.98
2023-02-27T14:08:08.116Z,98072.90
2023-02-27T14:10:37.529Z,98072.13
2023-02-27T14:13:06.669Z,98073.45
2023-02-27T14:15:35.888Z,98081.66
2023-02-27T14:18:17.811Z,98085.42
2023-02-27T14:20:49.674Z,98090.67
2023-02-27T14:23:17.556Z,98094.06
2023-02-27T14:25:51.755Z,98099.80
2023-02-27T14:28:39.900Z,98104.54
2023-02-27T14:31:10.991Z,98102.30
2023-02-27T14:33:45.498Z,98109.30
2023-02-27T14:36:19.107Z,98108.77
2023-02-27T14:38:47.549Z,98115.63
2023-02-27T14:41:34.588Z,98120.58
2023-02-27T14:44:02.743Z,98122.15
2023-02-27T14:46:32.941Z,98127.70
2023-02-27T14:49:02.872Z,98133.65
2023-02-27T14:51:32.655Z,98143.33
2023-02-27T14:54:13.461Z,98151.91
2023-02-27T14:56:42.151Z,98154.98
2023-02-27T14:59:26.696Z,98159.40
2023-02-27T15:01:59.024Z,98161.10
2023-02-27T15:04:28.158Z,98165.52
2023-02-27T15:06:56.956Z,98165.09
2023-02-27T15:09:27.590Z,98167.06
2023-02-27T15:12:03.998Z,98172.80
2023-02-27T15:14:37.609Z,98171.98
2023-02-27T15:17:35.393Z,98173.69
2023-02-27T15:20:22.346Z,98179.15
2023-02-27T15:22:50.312Z,98183.90
2023-02-27T15:25:34.168Z,98186.45
2023-02-27T15:28:07.472Z,98191.02
2023-02-27T15:30:35.415Z,98197.30
2023-02-27T15:33:03.605Z,98200.36
2023-02-27T15:35:36.101Z,98202.69
2023-02-27T15:38:04.147Z,98207.16
2023-02-27T15:40:33.351Z,98207.30
2023-02-27T15:43:01.817Z,98211.90
2023-02-27T15:45:34.192Z,98218.77
2023-02-27T15:48:02.995Z,98223.58
2023-02-27T15:50:37.670Z,98230.69
2023-02-27T15:53:11.595Z,98234.77
2023-02-27T15:55:44.909Z,98241.18
2023-02-27T15:58:19.380Z,98240.19
2023-02-27T16:00:47.399Z,98242.29
2023-02-27T16:03:18.748Z,98251.15
2023-02-27T16:05:51.384Z,98254.44
2023-02-27T16:08:20.546Z,98254.06
2023-02-27T16:10:48.736Z,98254.40
2023-02-27T16:13:29.049Z,98257.61
2023-02-27T16:16:05.744Z,98259.79
2023-02-27T16:18:36.665Z,98269.38
2023-02-27T16:21:12.737Z,98273.52
2023-02-27T16:23:40.996Z,98277.66
2023-02-27T16:26:08.981Z,98280.29
2023-02-27T16:28:40.211Z,98278.40
2023-02-27T16:31:21.298Z,98281.17
2023-02-27T16:33:49.569Z,98282.56
2023-02-27T16:36:18.970Z,98288.05
2023-02-27T16:38:47.351Z,98297.30
2023-02-27T16:41:16.845Z,98300.95
2023-02-27T16:43:46.259Z,98311.48
2023-02-27T16:46:20.071Z,98317.73
2023-02-27T16:48:53.471Z,98322.58
2023-02-27T16:51:28.030Z,98326.94
2023-02-27T16:53:57.180Z,98333.17
2023-02-27T16:56:37.638Z,98339.22
2023-02-27T16:59:06.740Z,98338.75
2023-02-27T17:01:34.983Z,98342.36
2023-02-27T17:04:05.257Z,98345.95
2023-02-27T17:06:36.525Z,98345.77
2023-02-27T17:09:04.840Z,98344.77
2023-02-27T17:11:32.906Z,98344.99
2023-02-27T17:14:00.907Z,98343.68
2023-02-27T17:16:29.236Z,98345.08
2023-02-27T17:18:57.666Z,98342.00
2023-02-27T17:21:25.594Z,98345.77
2023-02-27T17:23:53.702Z,98348.81
2023-02-27T17:26:21.783Z,98357.23
2023-02-27T17:28:49.847Z,98362.91
2023-02-27T17:31:23.197Z,98358.96
2023-02-27T17:33:52.143Z,98364.64
2023-02-27T17:36:20.937Z,98369.27
2023-02-27T17:38:53.603Z,98370.58
2023-02-27T17:41:21.474Z,98368.29
2023-02-27T17:43:54.048Z,98370.77
2023-02-27T17:46:23.231Z,98373.60
2023-02-27T17:48:51.417Z,98373.35
2023-02-27T17:51:19.656Z,98378.25
2023-02-27T17:53:47.774Z,98374.94
2023-02-27T17:56:15.632Z,98372.13
2023-02-27T17:58:45.652Z,98373.94
2023-02-27T18:01:15.303Z,98379.70
2023-02-27T18:03:46.298Z,98384.63
2023-02-27T18:06:14.765Z,98394.55
2023-02-27T18:08:42.856Z,98401.60
2023-02-27T18:11:14.976Z,98402.82
2023-02-27T18:13:43.191Z,98405.27
2023-02-27T18:16:11.741Z,98406.34
2023-02-27T18:18:40.593Z,98405.38
2023-02-27T18:21:16.586Z,98407.30
2023-02-27T18:23:44.622Z,98408.15
2023-02-27T18:26:27.222Z,98410.74
2023-02-27T18:29:08.704Z,98408.04
2023-02-27T18:31:36.770Z,98402.58
2023-02-27T18:34:08.127Z,98401.24
2023-02-27T18:36:36.706Z,98401.79
2023-02-27T18:39:05.898Z,98408.86
2023-02-27T18:41:34.065Z,98412.69
2023-02-27T18:44:02.136Z,98414.60
2023-02-27T18:46:30.553Z,98413.96
2023-02-27T18:48:59.107Z,98417.58
2023-02-27T18:51:27.688Z,98421.07
2023-02-27T18:53:56.165Z,98424.03
2023-02-27T18:56:25.169Z,98425.27
2023-02-27T18:58:54.071Z,98426.52
2023-02-27T19:01:23.452Z,98426.38
2023-02-27T19:03:51.605Z,98427.92
2023-02-27T19:06:19.844Z,98426.58
2023-02-27T19:08:47.878Z,98431.08
2023-02-27T19:11:25.978Z,98434.34
2023-02-27T19:13:53.974Z,98435.76
2023-02-27T19:16:22.047Z,98442.98
2023-02-27T19:18:50.110Z,98443.36
2023-02-27T19:21:18.070Z,98445.79
2023-02-27T19:23:46.030Z,98447.34
2023-02-27T19:26:14.619Z,98448.90
2023-02-27T19:28:42.585Z,98451.97
2023-02-27T19:31:12.872Z,98451.80
2023-02-27T19:33:41.290Z,98453.54
2023-02-27T19:36:11.221Z,98457.16
2023-02-27T19:38:39.584Z,98456.52
2023-02-27T19:41:09.811Z,98460.14
2023-02-27T19:43:38.611Z,98458.30
2023-02-27T19:46:07.694Z,98458.66
2023-02-27T19:48:35.969Z,98456.13
2023-02-27T19:51:11.612Z,98460.27
2023-02-27T19:53:41.024Z,98461.98
2023-02-27T19:56:11.654Z,98463.71
2023-02-27T19:58:39.930Z,98468.87
2023-02-27T20:01:07.952Z,98475.74
2023-02-27T20:03:37.143Z,98478.48
2023-02-27T20:06:05.906Z,98478.13
2023-02-27T20:08:34.283Z,98479.14
2023-02-27T20:11:04.380Z,98478.08
2023-02-27T20:13:32.458Z,98477.70
2023-02-27T20:16:02.417Z,98480.11
2023-02-27T20:18:31.064Z,98482.33
2023-02-27T20:21:00.049Z,98483.71
2023-02-27T20:23:28.016Z,98485.44
2023-02-27T20:25:56.134Z,98485.80
2023-02-27T20:28:24.137Z,98481.34
2023-02-27T20:30:52.126Z,98482.19
2023-02-27T20:33:20.092Z,98480.46
2023-02-27T20:35:48.040Z,98482.18
2023-02-27T20:38:19.919Z,98484.24
2023-02-27T20:40:47.892Z,98483.04
2023-02-27T20:43:15.760Z,98484.59
2023-02-27T20:45:43.696Z,98491.43
2023-02-27T20:48:11.698Z,98490.77
2023-02-27T20:50:39.775Z,98490.23
2023-02-27T20:53:07.744Z,98491.29
2023-02-27T20:55:35.711Z,98489.56
2023-02-27T20:58:03.696Z,98482.20
2023-02-27T21:00:31.662Z,98480.30
2023-02-27T21:03:01.060Z,98477.56
2023-02-27T21:05:29.030Z,98474.14
2023-02-27T21:07:57.262Z,98474.15
2023-02-27T21:10:25.448Z,98481.01
2023-02-27T21:12:53.747Z,98475.36
2023-02-27T21:15:21.626Z,98471.76
2023-02-27T21:17:49.586Z,98477.75
2023-02-27T21:20:17.559Z,98477.27
2023-02-27T21:22:45.520Z,98482.06
2023-02-27T21:25:14.116Z,98482.05
2023-02-27T21:27:42.182Z,98485.48
2023-02-27T21:30:11.174Z,98487.69
2023-02-27T21:32:39.015Z,98493.52
2023-02-27T21:35:07.318Z,98493.35
2023-02-27T21:37:35.158Z,98496.95
2023-02-27T21:40:04.532Z,98498.46
2023-02-27T21:42:32.550Z,98503.27
2023-02-27T21:45:00.530Z,98515.10
2023-02-27T21:47:29.545Z,98518.35
2023-02-27T21:49:57.496Z,98520.75
2023-02-27T21:52:25.437Z,98523.32
2023-02-27T21:54:54.361Z,98524.88
2023-02-27T21:57:22.412Z,98524.34
2023-02-27T21:59:50.590Z,98524.63
2023-02-27T22:02:18.439Z,98518.08
2023-02-27T22:04:46.424Z,98512.55
2023-02-27T22:07:14.295Z,98502.39
2023-02-27T22:09:42.369Z,98495.48
2023-02-27T22:12:10.857Z,98502.83
2023-02-27T22:14:39.669Z,98509.98
2023-02-27T22:17:07.707Z,98508.59
2023-02-27T22:19:35.737Z,98502.71
2023-02-27T22:22:03.548Z,98504.53
2023-02-27T22:24:31.515Z,98512.61
2023-02-27T22:26:59.580Z,98521.39
2023-02-27T22:29:27.453Z,98524.16
2023-02-27T22:31:55.537Z,98520.44
2023-02-27T22:34:23.505Z,98525.95
2023-02-27T22:36:52.834Z,98533.34
2023-02-27T22:39:21.585Z,98536.39
2023-02-27T22:41:49.603Z,98542.21
2023-02-27T22:44:17.754Z,98547.52
2023-02-27T22:46:47.528Z,98546.30
2023-02-27T22:49:22.364Z,98550.59
2023-02-27T22:51:52.149Z,98554.71
2023-02-27T22:54:21.215Z,98552.46
2023-02-27T22:56:49.770Z,98545.73
2023-02-27T22:59:17.935Z,98545.16
2023-02-27T23:01:46.622Z,98547.05
2023-02-27T23:04:17.206Z,98546.38
2023-02-27T23:06:45.222Z,98553.80
2023-02-27T23:09:17.386Z,98557.04
2023-02-27T23:11:45.931Z,98559.45
2023-02-27T23:14:14.160Z,98560.16
2023-02-27T23:16:45.813Z,98557.07
2023-02-27T23:19:15.310Z,98555.88
2023-02-27T23:21:43.151Z,98556.57
2023-02-27T23:24:15.543Z,98554.32
2023-02-27T23:26:44.844Z,98556.22
2023-02-27T23:29:13.202Z,98561.23
2023-02-27T23:31:42.461Z,98555.45
2023-02-27T23:34:10.915Z,98554.77
2023-02-27T23:36:39.186Z,98553.25
2023-02-27T23:39:07.984Z,98554.98
2023-02-27T23:41:36.056Z,98558.41
2023-02-27T23:44:03.918Z,98562.02
2023-02-27T23:46:32.383Z,98565.61
2023-02-27T23:49:01.082Z,98569.77
2023-02-27T23:51:30.633Z,98573.90
2023-02-27T23:53:59.592Z,98574.95
2023-02-27T23:56:28.954Z,98579.09
2023-02-27T23:58:58.292Z,98581.34
